Gaston, South Carolina
Current Conditions -  °F | °C
As of 10:56 PM on Wednesday 26 Nov 2014 (Local Time) from KCAE Reporting Station
Clear Clear  
Wind Chill: 39°   Ceiling: Unl
Heat Index: 42°   Visibility: 10mi
Dew Point: 36°   Wind: 5mph
Humidity: 79%   Direction: 250°WSW
Pressure: 30.07"   Gusts: NA
Location:  33.82°N, 81.1°W
Report Text: KCAE 270356Z 25004KT 10SM CLR 06/02 A3007 RMK AO2 SLP184 T00560022
Loading
Personal Weather Stations






























Interactive Weather Map New forecast layout! Learn more

10-Day Weather Forecast

Advertisements
Track Severe Weather on mobile